createdAt,value
2023-01-27T00:00:57.958Z,2.85
2023-01-27T00:03:24.377Z,3.78
2023-01-27T00:05:50.929Z,3.88
2023-01-27T00:08:17.789Z,3.42
2023-01-27T00:10:44.155Z,3.70
2023-01-27T00:13:27.319Z,5.00
2023-01-27T00:15:53.779Z,4.18
2023-01-27T00:18:20.294Z,3.05
2023-01-27T00:21:05.935Z,3.60
2023-01-27T00:23:50.782Z,3.42
2023-01-27T00:26:17.981Z,3.42
2023-01-27T00:28:44.893Z,2.50
2023-01-27T00:31:30.349Z,3.20
2023-01-27T00:34:02.171Z,3.15
2023-01-27T00:36:29.984Z,3.63
2023-01-27T00:38:56.769Z,2.95
2023-01-27T00:41:23.176Z,4.90
2023-01-27T00:43:50.641Z,2.97
2023-01-27T00:46:17.609Z,2.50
2023-01-27T00:48:44.252Z,5.00
2023-01-27T00:51:11.119Z,3.25
2023-01-27T00:53:37.585Z,3.20
2023-01-27T00:56:04.272Z,4.68
2023-01-27T00:58:30.937Z,4.45
2023-01-27T01:00:59.611Z,4.28
2023-01-27T01:03:26.652Z,3.67
2023-01-27T01:05:53.042Z,3.00
2023-01-27T01:08:19.397Z,3.35
2023-01-27T01:10:45.745Z,3.42
2023-01-27T01:13:12.046Z,3.35
2023-01-27T01:15:39.192Z,3.35
2023-01-27T01:18:05.751Z,3.88
2023-01-27T01:20:35.350Z,3.80
2023-01-27T01:23:01.830Z,2.83
2023-01-27T01:25:28.161Z,3.30
2023-01-27T01:27:54.447Z,3.30
2023-01-27T01:30:21.571Z,3.22
2023-01-27T01:32:48.053Z,2.42
2023-01-27T01:35:14.348Z,2.60
2023-01-27T01:37:40.660Z,2.03
2023-01-27T01:40:08.397Z,1.98
2023-01-27T01:42:49.948Z,2.40
2023-01-27T01:45:31.417Z,2.30
2023-01-27T01:48:08.310Z,2.92
2023-01-27T01:50:36.042Z,2.95
2023-01-27T01:53:03.423Z,2.63
2023-01-27T01:55:30.507Z,2.80
2023-01-27T01:57:56.904Z,3.70
2023-01-27T02:00:24.440Z,2.53
2023-01-27T02:02:51.621Z,3.10
2023-01-27T02:05:21.139Z,2.70
2023-01-27T02:07:54.828Z,2.70
2023-01-27T02:10:21.255Z,2.20
2023-01-27T02:12:47.619Z,2.70
2023-01-27T02:15:14.354Z,2.78
2023-01-27T02:17:41.411Z,2.80
2023-01-27T02:20:17.254Z,3.15
2023-01-27T02:22:55.715Z,3.53
2023-01-27T02:25:34.023Z,2.58
2023-01-27T02:28:04.373Z,3.28
2023-01-27T02:30:31.003Z,2.80
2023-01-27T02:32:57.524Z,2.65
2023-01-27T02:35:27.682Z,2.60
2023-01-27T02:37:54.484Z,2.20
2023-01-27T02:40:21.568Z,2.40
2023-01-27T02:42:47.923Z,3.03
2023-01-27T02:45:14.508Z,2.40
2023-01-27T02:47:41.144Z,2.88
2023-01-27T02:50:07.820Z,2.55
2023-01-27T02:52:34.114Z,2.35
2023-01-27T02:55:00.443Z,1.92
2023-01-27T02:57:27.130Z,3.03
2023-01-27T02:59:53.444Z,2.05
2023-01-27T03:02:23.094Z,2.47
2023-01-27T03:04:49.813Z,2.05
2023-01-27T03:07:16.157Z,1.27
2023-01-27T03:09:42.559Z,1.40
2023-01-27T03:12:21.195Z,1.02
2023-01-27T03:15:07.396Z,1.45
2023-01-27T03:17:52.442Z,1.40
2023-01-27T03:20:19.086Z,1.10
2023-01-27T03:22:45.469Z,0.55
2023-01-27T03:25:12.140Z,1.10
2023-01-27T03:27:38.640Z,0.90
2023-01-27T03:30:05.302Z,0.85
2023-01-27T03:32:32.258Z,0.93
2023-01-27T03:35:00.293Z,0.90
2023-01-27T03:37:49.517Z,0.90
2023-01-27T03:40:35.007Z,0.60
2023-01-27T03:43:20.371Z,0.70
2023-01-27T03:46:08.998Z,0.60
2023-01-27T03:48:36.085Z,0.57
2023-01-27T03:51:03.347Z,0.60
2023-01-27T03:53:29.788Z,0.82
2023-01-27T03:55:56.081Z,0.80
2023-01-27T03:58:24.183Z,0.90
2023-01-27T04:00:52.262Z,0.90
2023-01-27T04:03:37.633Z,0.90
2023-01-27T04:06:23.718Z,0.73
2023-01-27T04:08:50.045Z,0.50
2023-01-27T04:11:35.109Z,0.80
2023-01-27T04:14:02.947Z,0.60
2023-01-27T04:16:30.187Z,0.50
2023-01-27T04:18:56.807Z,0.88
2023-01-27T04:21:23.635Z,0.90
2023-01-27T04:23:50.235Z,0.65
2023-01-27T04:26:16.601Z,0.50
2023-01-27T04:28:44.513Z,0.77
2023-01-27T04:31:11.410Z,0.80
2023-01-27T04:33:37.778Z,0.90
2023-01-27T04:36:04.297Z,0.80
2023-01-27T04:38:30.726Z,1.00
2023-01-27T04:40:57.234Z,0.70
2023-01-27T04:43:23.552Z,1.23
2023-01-27T04:45:49.899Z,1.35
2023-01-27T04:48:16.298Z,1.10
2023-01-27T04:50:42.761Z,1.10
2023-01-27T04:53:09.192Z,0.90
2023-01-27T04:55:35.490Z,0.80
2023-01-27T04:58:01.827Z,1.10
2023-01-27T05:00:28.125Z,0.90
2023-01-27T05:02:54.514Z,1.00
2023-01-27T05:05:20.916Z,0.95
2023-01-27T05:07:47.336Z,1.67
2023-01-27T05:10:13.630Z,1.73
2023-01-27T05:12:40.216Z,1.45
2023-01-27T05:15:06.966Z,1.50
2023-01-27T05:17:33.872Z,1.20
2023-01-27T05:20:00.260Z,1.05
2023-01-27T05:22:26.593Z,1.35
2023-01-27T05:24:52.985Z,1.38
2023-01-27T05:27:19.499Z,2.13
2023-01-27T05:29:45.979Z,1.77
2023-01-27T05:32:12.333Z,0.95
2023-01-27T05:34:38.698Z,1.05
2023-01-27T05:37:05.107Z,2.60
2023-01-27T05:39:31.397Z,1.95
2023-01-27T05:41:57.826Z,1.55
2023-01-27T05:44:24.163Z,1.50
2023-01-27T05:46:50.667Z,1.60
2023-01-27T05:49:17.121Z,2.20
2023-01-27T05:51:43.434Z,1.85
2023-01-27T05:54:09.782Z,1.10
2023-01-27T05:56:36.125Z,1.02
2023-01-27T05:59:02.687Z,1.27
2023-01-27T06:01:32.956Z,1.48
2023-01-27T06:03:59.415Z,1.30
2023-01-27T06:06:26.901Z,1.30
2023-01-27T06:08:53.522Z,1.08
2023-01-27T06:11:20.327Z,1.48
2023-01-27T06:13:46.850Z,2.40
2023-01-27T06:16:14.304Z,2.22
2023-01-27T06:18:41.150Z,2.58
2023-01-27T06:21:08.234Z,3.03
2023-01-27T06:23:34.886Z,2.38
2023-01-27T06:26:03.005Z,2.85
2023-01-27T06:28:30.093Z,2.58
2023-01-27T06:30:57.222Z,2.15
2023-01-27T06:33:23.749Z,2.05
2023-01-27T06:35:50.169Z,2.30
2023-01-27T06:38:16.481Z,2.33
2023-01-27T06:40:44.137Z,1.52
2023-01-27T06:43:14.272Z,1.98
2023-01-27T06:45:40.889Z,2.03
2023-01-27T06:48:08.416Z,2.38
2023-01-27T06:50:34.898Z,1.60
2023-01-27T06:53:02.129Z,1.70
2023-01-27T06:55:28.932Z,2.10
2023-01-27T06:57:55.359Z,1.70
2023-01-27T07:00:21.758Z,1.70
2023-01-27T07:02:48.233Z,1.63
2023-01-27T07:05:14.765Z,1.70
2023-01-27T07:07:41.112Z,1.98
2023-01-27T07:10:08.390Z,1.85
2023-01-27T07:12:37.787Z,1.92
2023-01-27T07:15:07.899Z,2.22
2023-01-27T07:17:34.961Z,1.35
2023-01-27T07:20:02.502Z,1.98
2023-01-27T07:22:29.214Z,1.80
2023-01-27T07:24:58.347Z,1.00
2023-01-27T07:27:25.129Z,1.40
2023-01-27T07:29:51.874Z,1.38
2023-01-27T07:32:18.306Z,1.30
2023-01-27T07:34:44.651Z,1.00
2023-01-27T07:37:11.290Z,1.00
2023-01-27T07:39:38.133Z,0.90
2023-01-27T07:42:04.833Z,1.00
2023-01-27T07:44:31.169Z,1.40
2023-01-27T07:47:00.743Z,1.80
2023-01-27T07:49:27.607Z,1.73
2023-01-27T07:51:54.242Z,1.80
2023-01-27T07:54:20.646Z,2.28
2023-01-27T07:56:46.979Z,1.80
2023-01-27T07:59:13.279Z,1.88
2023-01-27T08:01:41.833Z,2.10
2023-01-27T08:04:08.311Z,2.10
2023-01-27T08:06:34.680Z,2.05
2023-01-27T08:09:01.031Z,1.90
2023-01-27T08:11:27.384Z,2.00
2023-01-27T08:13:53.874Z,2.15
2023-01-27T08:16:20.266Z,1.80
2023-01-27T08:18:46.611Z,2.08
2023-01-27T08:21:13.524Z,2.22
2023-01-27T08:23:39.939Z,2.08
2023-01-27T08:26:06.766Z,2.03
2023-01-27T08:28:34.191Z,1.60
2023-01-27T08:31:07.807Z,1.70
2023-01-27T08:33:34.240Z,1.70
2023-01-27T08:36:08.742Z,1.30
2023-01-27T08:38:35.055Z,1.95
2023-01-27T08:41:05.556Z,1.48
2023-01-27T08:43:31.969Z,1.60
2023-01-27T08:46:00.314Z,2.33
2023-01-27T08:48:31.137Z,1.70
2023-01-27T08:50:58.304Z,2.03
2023-01-27T08:53:24.968Z,2.00
2023-01-27T08:55:51.775Z,2.17
2023-01-27T08:58:18.458Z,1.42
2023-01-27T09:00:44.874Z,1.23
2023-01-27T09:03:11.379Z,1.02
2023-01-27T09:05:38.160Z,1.10
2023-01-27T09:08:04.930Z,1.10
2023-01-27T09:10:31.627Z,1.60
2023-01-27T09:12:57.928Z,1.48
2023-01-27T09:15:24.247Z,1.42
2023-01-27T09:17:50.626Z,0.90
2023-01-27T09:20:17.200Z,0.82
2023-01-27T09:22:44.135Z,1.05
2023-01-27T09:25:13.869Z,0.98
2023-01-27T09:27:40.533Z,1.02
2023-01-27T09:30:07.359Z,0.90
2023-01-27T09:32:33.649Z,1.00
2023-01-27T09:35:00.031Z,0.90
2023-01-27T09:37:27.895Z,0.98
2023-01-27T09:39:59.977Z,0.75
2023-01-27T09:42:32.137Z,0.80
2023-01-27T09:45:07.674Z,0.60
2023-01-27T09:47:43.567Z,0.90
2023-01-27T09:50:13.140Z,0.80
2023-01-27T09:52:58.459Z,0.70
2023-01-27T09:55:43.379Z,0.90
2023-01-27T09:58:19.109Z,0.77
2023-01-27T10:00:54.085Z,0.80
2023-01-27T10:03:29.692Z,0.75
2023-01-27T10:06:17.060Z,1.05
2023-01-27T10:08:52.203Z,0.50
2023-01-27T10:11:24.377Z,0.52
2023-01-27T10:14:03.839Z,0.50
2023-01-27T10:16:33.105Z,0.70
2023-01-27T10:19:05.641Z,0.80
2023-01-27T10:21:31.918Z,0.88
2023-01-27T10:24:12.713Z,1.00
2023-01-27T10:26:41.172Z,0.55
2023-01-27T10:29:20.031Z,0.80
2023-01-27T10:32:06.686Z,0.70
2023-01-27T10:34:37.348Z,1.27
2023-01-27T10:37:03.630Z,1.58
2023-01-27T10:39:35.767Z,1.85
2023-01-27T10:42:02.139Z,1.52
2023-01-27T10:44:51.514Z,1.45
2023-01-27T10:47:23.897Z,2.08
2023-01-27T10:49:53.720Z,1.65
2023-01-27T10:52:23.039Z,1.40
2023-01-27T10:55:01.028Z,1.30
2023-01-27T10:57:35.137Z,1.20
2023-01-27T11:00:51.878Z,1.10
2023-01-27T11:03:09.922Z,1.20
2023-01-27T11:05:42.281Z,1.20
2023-01-27T11:08:14.143Z,1.20
2023-01-27T11:11:02.197Z,1.02
2023-01-27T11:13:30.636Z,1.02
2023-01-27T11:15:57.800Z,0.70
2023-01-27T11:18:25.985Z,0.70
2023-01-27T11:21:00.641Z,0.70
2023-01-27T11:23:35.576Z,0.80
2023-01-27T11:26:23.347Z,0.80
2023-01-27T11:29:08.657Z,0.50
2023-01-27T11:31:53.548Z,0.50
2023-01-27T11:34:32.894Z,1.10
2023-01-27T11:37:00.159Z,0.50
2023-01-27T11:39:31.526Z,0.60
2023-01-27T11:41:58.175Z,0.90
2023-01-27T11:44:26.173Z,0.77
2023-01-27T11:46:53.936Z,0.90
2023-01-27T11:49:29.333Z,0.50
2023-01-27T11:52:05.638Z,0.70
2023-01-27T11:54:44.105Z,0.50
2023-01-27T11:57:18.994Z,0.40
2023-01-27T11:59:45.550Z,0.30
2023-01-27T12:02:19.471Z,0.77
2023-01-27T12:05:07.979Z,0.90
2023-01-27T12:08:06.926Z,0.90
2023-01-27T12:10:34.837Z,0.70
2023-01-27T12:13:27.220Z,0.70
2023-01-27T12:18:20.442Z,0.40
2023-01-27T12:20:48.465Z,0.50
2023-01-27T12:23:19.908Z,0.50
2023-01-27T12:25:50.497Z,0.50
2023-01-27T12:28:21.674Z,0.38
2023-01-27T12:30:48.139Z,0.30
2023-01-27T12:33:20.960Z,0.40
2023-01-27T12:35:49.616Z,0.30
2023-01-27T12:38:21.161Z,0.20
2023-01-27T12:40:48.117Z,0.50
2023-01-27T12:43:15.824Z,0.50
2023-01-27T12:45:43.436Z,0.60
2023-01-27T12:48:09.906Z,0.50
2023-01-27T12:50:37.523Z,0.60
2023-01-27T12:53:05.926Z,0.50
2023-01-27T12:55:34.304Z,0.50
2023-01-27T12:58:00.870Z,0.50
2023-01-27T13:00:27.977Z,0.80
2023-01-27T13:02:57.298Z,0.93
2023-01-27T13:05:23.603Z,0.63
2023-01-27T13:07:52.157Z,1.00
2023-01-27T13:10:25.342Z,0.90
2023-01-27T13:12:52.892Z,0.77
2023-01-27T13:15:20.576Z,1.15
2023-01-27T13:17:48.139Z,0.95
2023-01-27T13:20:17.373Z,0.80
2023-01-27T13:22:45.354Z,0.90
2023-01-27T13:25:18.019Z,0.90
2023-01-27T13:27:45.358Z,0.90
2023-01-27T13:30:20.731Z,0.60
2023-01-27T13:32:48.842Z,0.90
2023-01-27T13:35:18.241Z,0.57
2023-01-27T13:37:50.915Z,0.75
2023-01-27T13:40:17.301Z,0.50
2023-01-27T13:42:49.517Z,0.57
2023-01-27T13:45:18.724Z,0.60
2023-01-27T13:47:53.306Z,0.68
2023-01-27T13:50:26.637Z,0.75
2023-01-27T13:52:54.556Z,0.80
2023-01-27T13:55:26.768Z,0.73
2023-01-27T13:58:16.701Z,0.70
2023-01-27T14:01:01.167Z,0.80
2023-01-27T14:03:46.411Z,1.02
2023-01-27T14:06:24.884Z,0.98
2023-01-27T14:08:57.306Z,0.75
2023-01-27T14:11:36.243Z,1.00
2023-01-27T14:14:22.838Z,1.10
2023-01-27T14:16:56.885Z,1.27
2023-01-27T14:19:29.395Z,1.02
2023-01-27T14:22:06.419Z,1.25
2023-01-27T14:24:47.977Z,1.00
2023-01-27T14:27:14.452Z,0.80
2023-01-27T14:29:59.605Z,1.00
2023-01-27T14:32:29.104Z,0.63
2023-01-27T14:35:05.910Z,0.70
2023-01-27T14:37:53.275Z,0.75
2023-01-27T14:40:28.469Z,1.00
2023-01-27T14:42:54.818Z,1.08
2023-01-27T14:45:23.762Z,1.17
2023-01-27T14:48:12.885Z,0.93
2023-01-27T14:50:48.431Z,1.45
2023-01-27T14:53:21.085Z,1.10
2023-01-27T14:55:56.721Z,1.20
2023-01-27T14:58:29.745Z,1.00
2023-01-27T15:01:05.249Z,1.00
2023-01-27T15:03:40.566Z,1.10
2023-01-27T15:06:21.339Z,0.90
2023-01-27T15:08:55.827Z,0.88
2023-01-27T15:11:22.168Z,0.60
2023-01-27T15:13:51.307Z,0.52
2023-01-27T15:16:30.870Z,0.80
2023-01-27T15:19:06.213Z,0.70
2023-01-27T15:21:35.263Z,1.00
2023-01-27T15:24:07.818Z,0.75
2023-01-27T15:26:34.777Z,0.90
2023-01-27T15:29:01.618Z,0.70
2023-01-27T15:31:28.914Z,0.70
2023-01-27T15:33:55.346Z,0.70
2023-01-27T15:36:27.404Z,0.75
2023-01-27T15:41:20.937Z,0.50
2023-01-27T15:44:02.491Z,0.63
2023-01-27T15:46:41.959Z,0.70
2023-01-27T15:49:15.631Z,0.63
2023-01-27T15:51:42.087Z,0.68
2023-01-27T15:54:15.405Z,0.50
2023-01-27T15:56:42.982Z,0.60
2023-01-27T15:59:14.953Z,0.50
2023-01-27T16:01:41.259Z,0.40
2023-01-27T16:04:18.155Z,0.40
2023-01-27T16:06:46.737Z,0.40
2023-01-27T16:09:17.055Z,0.30
2023-01-27T16:11:43.513Z,0.68
2023-01-27T16:14:12.914Z,0.60
2023-01-27T16:16:40.234Z,0.55
2023-01-27T16:19:17.003Z,0.50
2023-01-27T16:21:47.729Z,0.40
2023-01-27T16:24:21.392Z,0.40
2023-01-27T16:26:57.047Z,0.45
2023-01-27T16:29:23.386Z,0.30
2023-01-27T16:31:54.664Z,0.30
2023-01-27T16:34:23.501Z,0.40
2023-01-27T16:36:58.281Z,0.60
2023-01-27T16:39:24.743Z,0.40
2023-01-27T16:41:56.018Z,0.50
2023-01-27T16:44:24.213Z,0.40
2023-01-27T16:46:51.585Z,0.40
2023-01-27T16:49:20.888Z,0.40
2023-01-27T16:51:54.022Z,0.60
2023-01-27T16:54:23.210Z,0.63
2023-01-27T16:56:51.470Z,0.85
2023-01-27T16:59:22.850Z,0.60
2023-01-27T17:01:50.491Z,0.98
2023-01-27T17:04:20.425Z,0.90
2023-01-27T17:06:47.743Z,1.10
2023-01-27T17:09:21.151Z,0.80
2023-01-27T17:11:47.545Z,0.70
2023-01-27T17:14:28.637Z,1.10
2023-01-27T17:19:26.924Z,0.80
2023-01-27T17:21:55.507Z,0.88
2023-01-27T17:24:24.708Z,0.88
2023-01-27T17:27:00.285Z,1.10
2023-01-27T17:29:32.146Z,1.13
2023-01-27T17:31:58.646Z,0.75
2023-01-27T17:34:25.737Z,1.00
2023-01-27T17:37:10.892Z,0.80
2023-01-27T17:39:38.659Z,0.60
2023-01-27T17:42:05.778Z,1.00
2023-01-27T17:44:32.365Z,0.85
2023-01-27T17:47:02.229Z,0.85
2023-01-27T17:49:28.809Z,0.68
2023-01-27T17:51:57.087Z,0.70
2023-01-27T17:54:27.625Z,0.90
2023-01-27T17:57:01.131Z,0.68
2023-01-27T17:59:28.512Z,0.90
2023-01-27T18:01:59.059Z,1.35
2023-01-27T18:04:25.784Z,1.10
2023-01-27T18:06:52.617Z,1.30
2023-01-27T18:09:20.883Z,1.20
2023-01-27T18:11:55.554Z,1.45
2023-01-27T18:14:22.077Z,1.60
2023-01-27T18:16:58.096Z,1.58
2023-01-27T18:19:25.535Z,1.58
2023-01-27T18:22:12.331Z,1.05
2023-01-27T18:24:40.112Z,1.27
2023-01-27T18:27:25.068Z,1.00
2023-01-27T18:29:59.942Z,1.13
2023-01-27T18:32:27.576Z,0.85
2023-01-27T18:34:55.497Z,1.27
2023-01-27T18:37:27.421Z,1.23
2023-01-27T18:39:54.444Z,1.17
2023-01-27T18:42:21.534Z,0.90
2023-01-27T18:44:54.277Z,1.00
2023-01-27T18:47:34.274Z,1.30
2023-01-27T18:50:07.187Z,1.30
2023-01-27T18:52:33.561Z,1.60
2023-01-27T18:55:12.365Z,1.60
2023-01-27T18:57:39.042Z,1.20
2023-01-27T19:00:05.759Z,1.08
2023-01-27T19:02:32.213Z,1.25
2023-01-27T19:04:59.896Z,1.20
2023-01-27T19:07:26.774Z,1.20
2023-01-27T19:09:53.122Z,1.10
2023-01-27T19:12:19.474Z,1.40
2023-01-27T19:14:48.381Z,1.10
2023-01-27T19:17:22.039Z,1.15
2023-01-27T19:19:48.847Z,1.10
2023-01-27T19:22:16.188Z,1.10
2023-01-27T19:24:45.289Z,1.30
2023-01-27T19:27:12.549Z,1.20
2023-01-27T19:29:38.894Z,0.80
2023-01-27T19:32:05.454Z,1.08
2023-01-27T19:34:31.936Z,1.40
2023-01-27T19:36:58.397Z,1.13
2023-01-27T19:39:24.743Z,1.40
2023-01-27T19:41:51.052Z,1.60
2023-01-27T19:44:17.330Z,1.38
2023-01-27T19:46:43.772Z,1.50
2023-01-27T19:49:17.045Z,1.48
2023-01-27T19:51:43.374Z,1.10
2023-01-27T19:54:12.456Z,1.25
2023-01-27T19:56:38.786Z,1.50
2023-01-27T19:59:05.274Z,1.15
2023-01-27T20:01:31.695Z,1.08
2023-01-27T20:03:58.209Z,1.65
2023-01-27T20:06:26.059Z,0.98
2023-01-27T20:08:54.883Z,1.00
2023-01-27T20:11:36.889Z,1.42
2023-01-27T20:14:04.951Z,1.33
2023-01-27T20:16:31.578Z,1.33
2023-01-27T20:19:00.151Z,1.67
2023-01-27T20:21:27.145Z,1.70
2023-01-27T20:23:53.769Z,1.83
2023-01-27T20:29:48.915Z,1.50
2023-01-27T20:32:15.530Z,1.60
2023-01-27T20:34:41.805Z,1.45
2023-01-27T20:37:08.177Z,1.50
2023-01-27T20:39:34.595Z,1.15
2023-01-27T20:42:01.039Z,1.30
2023-01-27T20:44:27.348Z,1.40
2023-01-27T20:46:53.772Z,1.33
2023-01-27T20:49:20.167Z,1.20
2023-01-27T20:51:46.533Z,1.20
2023-01-27T20:54:12.915Z,1.10
2023-01-27T20:56:39.337Z,1.00
2023-01-27T20:59:05.684Z,1.30
2023-01-27T21:01:33.084Z,1.10
2023-01-27T21:03:59.643Z,0.98
2023-01-27T21:06:25.973Z,1.27
2023-01-27T21:08:52.373Z,0.98
2023-01-27T21:11:20.512Z,0.95
2023-01-27T21:13:47.951Z,1.05
2023-01-27T21:16:14.418Z,0.82
2023-01-27T21:18:40.852Z,1.48
2023-01-27T21:21:07.152Z,1.50
2023-01-27T21:23:34.059Z,1.30
2023-01-27T21:26:04.475Z,1.30
2023-01-27T21:28:32.496Z,1.30
2023-01-27T21:31:04.405Z,1.40
2023-01-27T21:35:57.032Z,1.45
2023-01-27T21:38:23.426Z,1.50
2023-01-27T21:40:52.246Z,1.23
2023-01-27T21:43:37.810Z,1.13
2023-01-27T21:46:04.279Z,0.80
2023-01-27T21:48:30.620Z,1.13
2023-01-27T21:50:56.963Z,0.85
2023-01-27T21:53:23.583Z,0.85
2023-01-27T21:55:49.920Z,1.15
2023-01-27T21:58:16.314Z,0.80
2023-01-27T22:00:42.753Z,0.77
2023-01-27T22:03:09.085Z,1.02
2023-01-27T22:05:36.261Z,0.90
2023-01-27T22:08:02.616Z,1.00
2023-01-27T22:10:29.871Z,0.80
2023-01-27T22:12:57.313Z,0.73
2023-01-27T22:15:23.711Z,0.80
2023-01-27T22:17:50.332Z,0.95
2023-01-27T22:20:17.352Z,1.00
2023-01-27T22:22:44.412Z,0.93
2023-01-27T22:25:12.209Z,0.88
2023-01-27T22:27:41.385Z,1.15
2023-01-27T22:30:18.222Z,1.05
2023-01-27T22:32:45.292Z,1.33
2023-01-27T22:35:13.723Z,1.20
2023-01-27T22:37:40.389Z,1.50
2023-01-27T22:40:07.104Z,1.20
2023-01-27T22:42:33.551Z,1.08
2023-01-27T22:44:59.887Z,1.52
2023-01-27T22:47:26.263Z,1.77
2023-01-27T22:49:52.580Z,1.40
2023-01-27T22:52:18.887Z,1.45
2023-01-27T22:54:45.226Z,1.70
2023-01-27T22:57:11.548Z,1.45
2023-01-27T22:59:37.877Z,1.75
2023-01-27T23:02:04.236Z,1.50
2023-01-27T23:04:30.627Z,1.42
2023-01-27T23:06:56.998Z,1.40
2023-01-27T23:09:23.410Z,1.13
2023-01-27T23:11:50.033Z,1.60
2023-01-27T23:14:16.451Z,1.50
2023-01-27T23:16:42.826Z,1.42
2023-01-27T23:19:09.306Z,1.30
2023-01-27T23:21:35.710Z,1.60
2023-01-27T23:24:02.031Z,1.10
2023-01-27T23:26:28.608Z,1.10
2023-01-27T23:28:54.946Z,0.70
2023-01-27T23:31:21.291Z,0.90
2023-01-27T23:33:49.186Z,0.90
2023-01-27T23:36:15.498Z,0.63
2023-01-27T23:38:41.904Z,1.17
2023-01-27T23:41:12.542Z,1.15
2023-01-27T23:43:39.032Z,1.20
2023-01-27T23:46:05.798Z,1.30
2023-01-27T23:48:32.108Z,1.15
2023-01-27T23:50:58.479Z,1.35
2023-01-27T23:53:24.783Z,1.52
2023-01-27T23:55:54.912Z,1.27
2023-01-27T23:58:21.323Z,0.85
